Bei Facebook empfehlenBei Twitter postenGoogle plusPinterest

Das Wetter im Erzgebirge am 14.04.2015

Wetter und Klima am 14.04.2015 Holzhau im Erzgebirge (630m ü.NN)
Letzte gemessene Temperatur und Uhrzeit der Messung23:45:00 Uhr4.80 °C
Temperatur (Maximum / Höchstwert) und Uhrzeit der Messung15:00:00 Uhr13.80 °C
Temperatur (Minimum / Tiefstwert) und Uhrzeit der Messung06:15:00-3.60 °C
Errechneter Absolutwert der Temperaturschwankungen zwischen Tmin und Tmax des Tages17.40 K
Errechnete Tagesmitteltemperatur5.08333 °C
Gesamt - Niederschlag des Tages (in flüssiger Form)0.00 Liter / m²
Luftdruck (Maximum / Höchstwert) und Zeitpunkt der Messung01:15:00 Uhr1025.60 hPa
Luftdruck (Minimum / Tiefstwert) und Zeitpunkt der Messung23:45:00 Uhr1019.10 hPa
Errechneter Absolutwert der Luftdruckschwankungen des Tages6.50 hPa
Höchste gemessene Windgeschwindigkeit und Uhrzeit der Messung14:45:00 Uhr12.24 km/h
Errechnete Windhäufigkeit in Relation zu den Messwerten des Tages19.79167 %
Niedrigste Windkühle (Windchill) und Zeitpunkt der Messung06:15:00 Uhr-3.60 °C
Taupunkt (Maximum / Höchstwert) und Uhrzeit der Messung19:15:00 Uhr4.10 °C
Taupunkt (Minimum / Tiefstwert) und Uhrzeit der Messung06:15:00-5.20 °C
Anzahl der automatisch eingelesenen Messwerte 96

Detaillierte Wetter- und Klima- Messwerte für den 14.04.2015 in Holzhau im Erzgebirge (630m ü.NN)
ZeitTemperaturLuftdruckRel. LuftfeuchteWindWindrichtungWindchillTaupunktNiederschlag l/m²
23:45:004.80 °C1019.10 hPa85.00 %2.50 °C 
23:30:004.60 °C1019.10 hPa85.00 %2.30 °C 
23:15:004.50 °C1019.30 hPa84.00 %2.00 °C 
23:00:004.50 °C1019.40 hPa83.00 %1.90 °C 
22:45:004.60 °C1019.60 hPa83.00 %2.00 °C 
22:30:004.90 °C1019.70 hPa82.00 %2.10 °C 
22:15:005.10 °C1019.70 hPa82.00 %2.30 °C 
22:00:004.90 °C1019.80 hPa80.00 %1.70 °C 
21:45:005.20 °C1019.90 hPa79.00 %1.90 °C 
21:30:005.60 °C1020.00 hPa77.00 %1.90 °C 
21:15:006.10 °C1019.90 hPa77.00 %2.40 °C 
21:00:006.50 °C1020.00 hPa75.00 %2.40 °C 
20:45:006.90 °C1019.90 hPa73.00 %2.40 °C 
20:30:007.60 °C1020.10 hPa69.00 %2.30 °C 
20:15:008.50 °C1019.80 hPa66.00 %2.50 °C 
20:00:009.30 °C1019.80 hPa64.00 %2.90 °C 
19:45:0010.20 °C1020.00 hPa62.00 %3.30 °C 
19:30:0010.90 °C1020.10 hPa61.00 %3.70 °C 
19:15:0011.30 °C1020.20 hPa61.00 %4.10 °C 
19:00:0011.60 °C1020.30 hPa59.00 %3.90 °C 
18:45:0011.90 °C1020.50 hPa58.00 %3.90 °C 
18:30:0012.10 °C1020.50 hPa57.00 %1.80 km/hWSW12.10 °C3.90 °C 
18:15:0012.10 °C1020.60 hPa56.00 %3.60 °C 
18:00:0012.30 °C1020.80 hPa54.00 %3.30 °C 
17:45:0012.60 °C1020.90 hPa51.00 %9.36 km/hWNW11.80 °C2.70 °C 
17:30:0012.90 °C1020.90 hPa49.00 %2.50 °C 
17:15:0013.30 °C1021.20 hPa49.00 %2.80 °C 
17:00:0013.30 °C1021.10 hPa49.00 %2.80 °C 
16:45:0013.50 °C1021.30 hPa47.00 %9.72 km/hW12.90 °C2.40 °C 
16:30:0013.50 °C1021.40 hPa48.00 %7.56 km/hW13.20 °C2.70 °C 
16:15:0013.50 °C1021.60 hPa48.00 %2.70 °C 
16:00:0013.40 °C1022.00 hPa48.00 %2.60 °C 
15:45:0013.40 °C1022.30 hPa46.00 %2.52 km/hNNW13.40 °C2.00 °C 
15:30:0013.60 °C1022.40 hPa48.00 %2.80 °C 
15:15:0013.50 °C1022.30 hPa46.00 %2.10 °C 
15:00:0013.80 °C1022.50 hPa42.00 %7.56 km/hWNW13.50 °C1.10 °C 
14:45:0013.40 °C1022.60 hPa41.00 %12.24 km/hNNW12.40 °C0.40 °C 
14:30:0012.90 °C1022.80 hPa42.00 %9.36 km/hW12.20 °C0.30 °C 
14:15:0012.40 °C1023.00 hPa41.00 %4.68 km/hWNW12.40 °C-0.50 °C 
14:00:0011.90 °C1023.20 hPa41.00 %-0.90 °C 
13:45:0011.90 °C1023.30 hPa41.00 %8.28 km/hNW11.20 °C-0.90 °C 
13:30:0011.80 °C1023.30 hPa41.00 %9.36 km/hSW10.90 °C-1.00 °C 
13:15:0011.50 °C1023.40 hPa45.00 %6.12 km/hNNW11.20 °C0.00 °C 
13:00:0011.10 °C1023.30 hPa45.00 %3.24 km/hW11.10 °C-0.40 °C 
12:45:0010.60 °C1023.40 hPa45.00 %5.76 km/hW10.20 °C-0.80 °C 
12:30:0010.30 °C1024.10 hPa49.00 %5.04 km/hNW10.10 °C0.10 °C 
12:15:0010.30 °C1024.20 hPa50.00 %6.84 km/hWNW9.60 °C0.30 °C 
12:00:009.90 °C1024.20 hPa50.00 %8.28 km/hWNW8.80 °C0.00 °C 
11:45:009.60 °C1024.30 hPa52.00 %0.20 °C 
11:30:009.30 °C1024.60 hPa55.00 %0.70 °C 
11:15:009.00 °C1024.60 hPa55.00 %0.50 °C 
11:00:008.80 °C1024.60 hPa58.00 %1.00 °C 
10:45:008.60 °C1024.70 hPa61.00 %6.48 km/hWNW7.70 °C1.50 °C 
10:30:008.30 °C1024.80 hPa62.00 %1.50 °C 
10:15:007.80 °C1024.70 hPa65.00 %5.76 km/hNW7.00 °C1.60 °C 
10:00:007.40 °C1024.80 hPa67.00 %1.70 °C 
09:45:006.90 °C1024.90 hPa73.00 %2.40 °C 
09:30:005.90 °C1024.70 hPa81.00 %2.90 °C 
09:15:004.80 °C1024.90 hPa85.00 %2.50 °C 
09:00:003.40 °C1025.00 hPa89.00 %1.80 °C 
08:45:002.20 °C1024.90 hPa90.00 %0.70 °C 
08:30:001.40 °C1025.10 hPa90.00 %-0.10 °C 
08:15:000.70 °C1025.30 hPa91.00 %-0.60 °C 
08:00:00-0.40 °C1025.40 hPa91.00 %-1.80 °C 
07:45:00-1.40 °C1025.40 hPa91.00 %-2.80 °C 
07:30:00-1.90 °C1025.30 hPa91.00 %-3.30 °C 
07:15:00-2.20 °C1025.10 hPa91.00 %-3.60 °C 
07:00:00-2.50 °C1025.00 hPa90.00 %-4.10 °C 
06:45:00-3.10 °C1025.00 hPa90.00 %-4.70 °C 
06:30:00-3.50 °C1025.20 hPa90.00 %-5.10 °C 
06:15:00-3.60 °C1025.20 hPa90.00 %-5.20 °C 
06:00:00-3.40 °C1025.20 hPa89.00 %-5.10 °C 
05:45:00-3.30 °C1025.00 hPa89.00 %-5.00 °C 
05:30:00-3.30 °C1025.30 hPa89.00 %-5.00 °C 
05:15:00-3.20 °C1025.40 hPa89.00 %-4.90 °C 
05:00:00-3.20 °C1025.30 hPa89.00 %-4.90 °C 
04:45:00-3.10 °C1025.10 hPa89.00 %-4.80 °C 
04:30:00-3.10 °C1025.10 hPa88.00 %-5.00 °C 
04:15:00-3.10 °C1025.00 hPa88.00 %-5.00 °C 
04:00:00-3.10 °C1025.00 hPa88.00 %-5.00 °C 
03:45:00-3.00 °C1024.90 hPa88.00 %-4.90 °C 
03:30:00-2.90 °C1024.90 hPa88.00 %-4.80 °C 
03:15:00-2.80 °C1024.90 hPa88.00 %-4.70 °C 
03:00:00-2.70 °C1025.10 hPa88.00 %-4.60 °C 
02:45:00-2.70 °C1025.10 hPa88.00 %-4.60 °C 
02:30:00-2.80 °C1025.10 hPa87.00 %-4.90 °C 
02:15:00-2.70 °C1025.40 hPa87.00 %-4.80 °C 
02:00:00-2.70 °C1025.40 hPa87.00 %-4.80 °C 
01:45:00-2.70 °C1025.40 hPa87.00 %-4.80 °C 
01:30:00-2.70 °C1025.50 hPa86.00 %-5.00 °C 
01:15:00-2.80 °C1025.60 hPa86.00 %-5.10 °C 
01:00:00-2.70 °C1025.50 hPa85.00 %-5.10 °C 
00:45:00-2.70 °C1025.50 hPa85.00 %-5.10 °C 
00:30:00-2.50 °C1025.40 hPa84.00 %-5.10 °C 
00:15:00-2.40 °C1025.40 hPa84.00 %-5.00 °C 
00:00:00-2.20 °C1025.20 hPa84.00 %-4.80 °C 

Permanenter Link zu dieser Seite: Wetter im Erzgebirge am 14.04.2015
Performance-Info: Die Erstellung der Seite / Statistik(en) / Tabelle(n) erforderte 5 Datenbankserver-Abfrage(n) und dauerte 101 Millisekunden. (Dieser Messwert ist von der Gesamt-Auslastung des Servers abhängig.)
Erzgebirge - Wetter | Erzgebirge - Wetter (Mobilgeräte) | Komplette Klimadatenbank